sensor_id;sensor_type;location;lat;lon;timestamp;P1;durP1;ratioP1;P2;durP2;ratioP2
20697;SDS011;10508;50.956;4.640;2022-11-20T00:01:14;22.25;;;10.18;;
20697;SDS011;10508;50.956;4.640;2022-11-20T00:03:44;21.77;;;10.55;;
20697;SDS011;10508;50.956;4.640;2022-11-20T00:06:11;24.80;;;10.75;;
20697;SDS011;10508;50.956;4.640;2022-11-20T00:08:39;24.73;;;10.45;;
20697;SDS011;10508;50.956;4.640;2022-11-20T00:11:05;22.77;;;9.80;;
20697;SDS011;10508;50.956;4.640;2022-11-20T00:13:32;22.15;;;10.50;;
20697;SDS011;10508;50.956;4.640;2022-11-20T00:15:59;21.92;;;9.48;;
20697;SDS011;10508;50.956;4.640;2022-11-20T00:18:26;23.95;;;10.45;;
20697;SDS011;10508;50.956;4.640;2022-11-20T00:21:04;23.15;;;10.13;;
20697;SDS011;10508;50.956;4.640;2022-11-20T00:23:31;23.30;;;10.70;;
20697;SDS011;10508;50.956;4.640;2022-11-20T00:26:01;20.33;;;9.70;;
20697;SDS011;10508;50.956;4.640;2022-11-20T00:28:30;23.92;;;10.63;;
20697;SDS011;10508;50.956;4.640;2022-11-20T00:33:29;22.38;;;9.77;;
20697;SDS011;10508;50.956;4.640;2022-11-20T00:35:58;25.90;;;10.95;;
20697;SDS011;10508;50.956;4.640;2022-11-20T00:38:28;30.25;;;11.13;;
20697;SDS011;10508;50.956;4.640;2022-11-20T00:40:56;24.63;;;10.98;;
20697;SDS011;10508;50.956;4.640;2022-11-20T00:43:25;28.48;;;10.45;;
20697;SDS011;10508;50.956;4.640;2022-11-20T00:48:28;27.13;;;11.18;;
20697;SDS011;10508;50.956;4.640;2022-11-20T00:50:54;26.25;;;10.07;;
20697;SDS011;10508;50.956;4.640;2022-11-20T00:53:20;23.30;;;10.13;;
20697;SDS011;10508;50.956;4.640;2022-11-20T00:55:53;22.48;;;10.43;;
20697;SDS011;10508;50.956;4.640;2022-11-20T00:58:23;28.42;;;10.85;;
20697;SDS011;10508;50.956;4.640;2022-11-20T01:00:50;26.90;;;10.98;;
20697;SDS011;10508;50.956;4.640;2022-11-20T01:03:16;32.00;;;11.63;;
20697;SDS011;10508;50.956;4.640;2022-11-20T01:05:43;25.88;;;10.95;;
20697;SDS011;10508;50.956;4.640;2022-11-20T01:08:08;23.50;;;10.75;;
20697;SDS011;10508;50.956;4.640;2022-11-20T01:10:34;27.27;;;11.20;;
20697;SDS011;10508;50.956;4.640;2022-11-20T01:13:00;27.17;;;11.73;;
20697;SDS011;10508;50.956;4.640;2022-11-20T01:15:44;27.23;;;11.57;;
20697;SDS011;10508;50.956;4.640;2022-11-20T01:18:09;23.92;;;10.93;;
20697;SDS011;10508;50.956;4.640;2022-11-20T01:20:35;29.17;;;11.68;;
20697;SDS011;10508;50.956;4.640;2022-11-20T01:23:02;26.55;;;11.65;;
20697;SDS011;10508;50.956;4.640;2022-11-20T01:25:28;28.70;;;12.07;;
20697;SDS011;10508;50.956;4.640;2022-11-20T01:27:54;34.00;;;11.85;;
20697;SDS011;10508;50.956;4.640;2022-11-20T01:30:20;25.50;;;11.23;;
20697;SDS011;10508;50.956;4.640;2022-11-20T01:32:45;26.60;;;10.80;;
20697;SDS011;10508;50.956;4.640;2022-11-20T01:35:11;25.08;;;10.13;;
20697;SDS011;10508;50.956;4.640;2022-11-20T01:37:37;25.58;;;11.32;;
20697;SDS011;10508;50.956;4.640;2022-11-20T01:40:02;22.88;;;9.63;;
20697;SDS011;10508;50.956;4.640;2022-11-20T01:42:28;24.98;;;11.48;;
20697;SDS011;10508;50.956;4.640;2022-11-20T01:48:15;29.40;;;11.13;;
20697;SDS011;10508;50.956;4.640;2022-11-20T01:50:42;29.80;;;10.90;;
20697;SDS011;10508;50.956;4.640;2022-11-20T01:53:09;26.23;;;11.10;;
20697;SDS011;10508;50.956;4.640;2022-11-20T01:55:40;27.98;;;11.65;;
20697;SDS011;10508;50.956;4.640;2022-11-20T01:58:09;26.40;;;10.25;;
20697;SDS011;10508;50.956;4.640;2022-11-20T02:00:35;32.78;;;11.98;;
20697;SDS011;10508;50.956;4.640;2022-11-20T02:03:01;27.50;;;11.50;;
20697;SDS011;10508;50.956;4.640;2022-11-20T02:05:35;26.35;;;12.10;;
20697;SDS011;10508;50.956;4.640;2022-11-20T02:08:15;30.63;;;12.30;;
20697;SDS011;10508;50.956;4.640;2022-11-20T02:10:41;25.13;;;12.18;;
20697;SDS011;10508;50.956;4.640;2022-11-20T02:13:06;23.25;;;10.40;;
20697;SDS011;10508;50.956;4.640;2022-11-20T02:15:51;24.02;;;9.68;;
20697;SDS011;10508;50.956;4.640;2022-11-20T02:18:18;29.60;;;11.13;;
20697;SDS011;10508;50.956;4.640;2022-11-20T02:20:46;27.17;;;11.85;;
20697;SDS011;10508;50.956;4.640;2022-11-20T02:23:28;25.92;;;11.43;;
20697;SDS011;10508;50.956;4.640;2022-11-20T02:26:05;27.23;;;11.90;;
20697;SDS011;10508;50.956;4.640;2022-11-20T02:28:35;27.17;;;10.95;;
20697;SDS011;10508;50.956;4.640;2022-11-20T02:31:01;22.80;;;9.85;;
20697;SDS011;10508;50.956;4.640;2022-11-20T02:33:27;25.23;;;10.82;;
20697;SDS011;10508;50.956;4.640;2022-11-20T02:35:52;26.92;;;11.02;;
20697;SDS011;10508;50.956;4.640;2022-11-20T02:38:18;23.92;;;10.30;;
20697;SDS011;10508;50.956;4.640;2022-11-20T02:40:44;28.60;;;11.10;;
20697;SDS011;10508;50.956;4.640;2022-11-20T02:43:09;28.05;;;11.75;;
20697;SDS011;10508;50.956;4.640;2022-11-20T02:45:35;27.48;;;10.45;;
20697;SDS011;10508;50.956;4.640;2022-11-20T02:48:01;32.42;;;12.52;;
20697;SDS011;10508;50.956;4.640;2022-11-20T02:50:27;27.90;;;11.77;;
20697;SDS011;10508;50.956;4.640;2022-11-20T02:52:53;30.85;;;11.70;;
20697;SDS011;10508;50.956;4.640;2022-11-20T02:55:18;29.85;;;11.88;;
20697;SDS011;10508;50.956;4.640;2022-11-20T02:57:44;31.98;;;12.32;;
20697;SDS011;10508;50.956;4.640;2022-11-20T03:00:09;24.58;;;11.38;;
20697;SDS011;10508;50.956;4.640;2022-11-20T03:02:36;27.77;;;11.75;;
20697;SDS011;10508;50.956;4.640;2022-11-20T03:05:01;30.70;;;11.85;;
20697;SDS011;10508;50.956;4.640;2022-11-20T03:07:27;30.33;;;11.98;;
20697;SDS011;10508;50.956;4.640;2022-11-20T03:09:53;35.10;;;11.07;;
20697;SDS011;10508;50.956;4.640;2022-11-20T03:12:18;34.25;;;12.68;;
20697;SDS011;10508;50.956;4.640;2022-11-20T03:14:44;30.20;;;12.68;;
20697;SDS011;10508;50.956;4.640;2022-11-20T03:17:10;31.27;;;12.32;;
20697;SDS011;10508;50.956;4.640;2022-11-20T03:19:35;32.38;;;11.25;;
20697;SDS011;10508;50.956;4.640;2022-11-20T03:22:01;32.45;;;12.05;;
20697;SDS011;10508;50.956;4.640;2022-11-20T03:24:26;30.40;;;12.82;;
20697;SDS011;10508;50.956;4.640;2022-11-20T03:26:52;28.30;;;11.65;;
20697;SDS011;10508;50.956;4.640;2022-11-20T03:29:18;30.02;;;11.65;;
20697;SDS011;10508;50.956;4.640;2022-11-20T03:31:43;37.85;;;13.57;;
20697;SDS011;10508;50.956;4.640;2022-11-20T03:34:09;29.95;;;12.40;;
20697;SDS011;10508;50.956;4.640;2022-11-20T03:36:39;33.65;;;12.93;;
20697;SDS011;10508;50.956;4.640;2022-11-20T03:39:06;33.25;;;12.55;;
20697;SDS011;10508;50.956;4.640;2022-11-20T03:41:35;29.27;;;12.90;;
20697;SDS011;10508;50.956;4.640;2022-11-20T03:44:03;46.00;;;14.00;;
20697;SDS011;10508;50.956;4.640;2022-11-20T03:46:31;32.35;;;13.75;;
20697;SDS011;10508;50.956;4.640;2022-11-20T03:48:57;33.72;;;14.40;;
20697;SDS011;10508;50.956;4.640;2022-11-20T03:51:32;38.50;;;13.18;;
20697;SDS011;10508;50.956;4.640;2022-11-20T03:54:01;35.88;;;14.52;;
20697;SDS011;10508;50.956;4.640;2022-11-20T03:56:29;37.22;;;14.48;;
20697;SDS011;10508;50.956;4.640;2022-11-20T03:58:56;41.90;;;14.52;;
20697;SDS011;10508;50.956;4.640;2022-11-20T04:01:24;38.70;;;13.27;;
20697;SDS011;10508;50.956;4.640;2022-11-20T04:03:51;41.38;;;15.13;;
20697;SDS011;10508;50.956;4.640;2022-11-20T04:06:19;43.55;;;14.93;;
20697;SDS011;10508;50.956;4.640;2022-11-20T04:08:47;45.45;;;15.15;;
20697;SDS011;10508;50.956;4.640;2022-11-20T04:11:19;46.10;;;13.57;;
20697;SDS011;10508;50.956;4.640;2022-11-20T04:13:48;40.45;;;15.18;;
20697;SDS011;10508;50.956;4.640;2022-11-20T04:16:15;37.72;;;15.05;;
20697;SDS011;10508;50.956;4.640;2022-11-20T04:18:41;48.90;;;16.08;;
20697;SDS011;10508;50.956;4.640;2022-11-20T04:21:08;40.42;;;15.02;;
20697;SDS011;10508;50.956;4.640;2022-11-20T04:23:33;42.35;;;14.82;;
20697;SDS011;10508;50.956;4.640;2022-11-20T04:26:03;35.33;;;14.02;;
20697;SDS011;10508;50.956;4.640;2022-11-20T04:28:34;40.90;;;14.05;;
20697;SDS011;10508;50.956;4.640;2022-11-20T04:31:09;37.38;;;14.43;;
20697;SDS011;10508;50.956;4.640;2022-11-20T04:33:39;40.88;;;14.80;;
20697;SDS011;10508;50.956;4.640;2022-11-20T04:36:06;34.83;;;13.65;;
20697;SDS011;10508;50.956;4.640;2022-11-20T04:38:35;36.30;;;14.65;;
20697;SDS011;10508;50.956;4.640;2022-11-20T04:41:02;37.33;;;15.40;;
20697;SDS011;10508;50.956;4.640;2022-11-20T04:43:30;42.75;;;15.25;;
20697;SDS011;10508;50.956;4.640;2022-11-20T04:45:56;39.72;;;14.52;;
20697;SDS011;10508;50.956;4.640;2022-11-20T04:48:23;42.05;;;15.68;;
20697;SDS011;10508;50.956;4.640;2022-11-20T04:50:50;44.45;;;16.35;;
20697;SDS011;10508;50.956;4.640;2022-11-20T04:53:16;42.55;;;15.40;;
20697;SDS011;10508;50.956;4.640;2022-11-20T04:55:43;40.08;;;14.90;;
20697;SDS011;10508;50.956;4.640;2022-11-20T04:58:08;47.63;;;15.00;;
20697;SDS011;10508;50.956;4.640;2022-11-20T05:00:34;38.95;;;14.40;;
20697;SDS011;10508;50.956;4.640;2022-11-20T05:03:00;41.88;;;14.60;;
20697;SDS011;10508;50.956;4.640;2022-11-20T05:05:26;36.67;;;13.75;;
20697;SDS011;10508;50.956;4.640;2022-11-20T05:07:51;33.22;;;12.68;;
20697;SDS011;10508;50.956;4.640;2022-11-20T05:10:17;39.55;;;14.50;;
20697;SDS011;10508;50.956;4.640;2022-11-20T05:12:42;32.67;;;13.80;;
20697;SDS011;10508;50.956;4.640;2022-11-20T05:15:08;36.40;;;13.15;;
20697;SDS011;10508;50.956;4.640;2022-11-20T05:17:34;37.05;;;13.60;;
20697;SDS011;10508;50.956;4.640;2022-11-20T05:19:59;34.88;;;13.32;;
20697;SDS011;10508;50.956;4.640;2022-11-20T05:22:25;33.95;;;12.90;;
20697;SDS011;10508;50.956;4.640;2022-11-20T05:24:51;34.10;;;14.02;;
20697;SDS011;10508;50.956;4.640;2022-11-20T05:27:16;34.92;;;13.55;;
20697;SDS011;10508;50.956;4.640;2022-11-20T05:29:43;30.50;;;12.65;;
20697;SDS011;10508;50.956;4.640;2022-11-20T05:32:08;35.95;;;14.10;;
20697;SDS011;10508;50.956;4.640;2022-11-20T05:34:34;34.15;;;14.52;;
20697;SDS011;10508;50.956;4.640;2022-11-20T05:37:01;38.38;;;14.25;;
20697;SDS011;10508;50.956;4.640;2022-11-20T05:39:27;43.67;;;14.82;;
20697;SDS011;10508;50.956;4.640;2022-11-20T05:41:53;41.55;;;13.95;;
20697;SDS011;10508;50.956;4.640;2022-11-20T05:44:38;44.15;;;14.18;;
20697;SDS011;10508;50.956;4.640;2022-11-20T05:47:03;36.75;;;14.50;;
20697;SDS011;10508;50.956;4.640;2022-11-20T05:49:29;36.08;;;15.02;;
20697;SDS011;10508;50.956;4.640;2022-11-20T05:51:55;31.80;;;13.68;;
20697;SDS011;10508;50.956;4.640;2022-11-20T05:54:20;45.03;;;14.80;;
20697;SDS011;10508;50.956;4.640;2022-11-20T05:56:46;38.70;;;15.07;;
20697;SDS011;10508;50.956;4.640;2022-11-20T05:59:12;45.78;;;13.95;;
20697;SDS011;10508;50.956;4.640;2022-11-20T06:01:37;41.50;;;14.05;;
20697;SDS011;10508;50.956;4.640;2022-11-20T06:04:03;35.40;;;14.02;;
20697;SDS011;10508;50.956;4.640;2022-11-20T06:06:28;47.53;;;15.38;;
20697;SDS011;10508;50.956;4.640;2022-11-20T06:08:54;40.78;;;15.48;;
20697;SDS011;10508;50.956;4.640;2022-11-20T06:11:20;37.75;;;15.55;;
20697;SDS011;10508;50.956;4.640;2022-11-20T06:13:47;49.90;;;16.25;;
20697;SDS011;10508;50.956;4.640;2022-11-20T06:16:14;35.85;;;14.10;;
20697;SDS011;10508;50.956;4.640;2022-11-20T06:18:41;38.75;;;14.70;;
20697;SDS011;10508;50.956;4.640;2022-11-20T06:21:08;42.63;;;15.20;;
20697;SDS011;10508;50.956;4.640;2022-11-20T06:23:38;50.35;;;16.50;;
20697;SDS011;10508;50.956;4.640;2022-11-20T06:26:08;34.28;;;14.10;;
20697;SDS011;10508;50.956;4.640;2022-11-20T06:28:35;43.08;;;15.98;;
20697;SDS011;10508;50.956;4.640;2022-11-20T06:31:01;41.33;;;15.20;;
20697;SDS011;10508;50.956;4.640;2022-11-20T06:33:27;38.05;;;14.40;;
20697;SDS011;10508;50.956;4.640;2022-11-20T06:35:55;40.13;;;14.45;;
20697;SDS011;10508;50.956;4.640;2022-11-20T06:38:23;36.40;;;13.23;;
20697;SDS011;10508;50.956;4.640;2022-11-20T06:40:49;41.38;;;15.13;;
20697;SDS011;10508;50.956;4.640;2022-11-20T06:43:15;36.47;;;14.07;;
20697;SDS011;10508;50.956;4.640;2022-11-20T06:45:41;37.03;;;14.82;;
20697;SDS011;10508;50.956;4.640;2022-11-20T06:48:07;38.78;;;14.55;;
20697;SDS011;10508;50.956;4.640;2022-11-20T06:50:33;38.28;;;13.65;;
20697;SDS011;10508;50.956;4.640;2022-11-20T06:53:01;34.45;;;13.77;;
20697;SDS011;10508;50.956;4.640;2022-11-20T06:55:28;35.97;;;12.88;;
20697;SDS011;10508;50.956;4.640;2022-11-20T06:57:54;32.17;;;12.80;;
20697;SDS011;10508;50.956;4.640;2022-11-20T07:00:20;38.53;;;14.23;;
20697;SDS011;10508;50.956;4.640;2022-11-20T07:02:45;36.30;;;13.73;;
20697;SDS011;10508;50.956;4.640;2022-11-20T07:05:11;34.03;;;12.43;;
20697;SDS011;10508;50.956;4.640;2022-11-20T07:07:37;31.05;;;12.32;;
20697;SDS011;10508;50.956;4.640;2022-11-20T07:10:02;38.25;;;13.02;;
20697;SDS011;10508;50.956;4.640;2022-11-20T07:12:29;35.65;;;13.60;;
20697;SDS011;10508;50.956;4.640;2022-11-20T07:14:54;37.45;;;14.60;;
20697;SDS011;10508;50.956;4.640;2022-11-20T07:17:20;31.65;;;12.98;;
20697;SDS011;10508;50.956;4.640;2022-11-20T07:19:45;33.70;;;14.23;;
20697;SDS011;10508;50.956;4.640;2022-11-20T07:22:11;32.70;;;13.25;;
20697;SDS011;10508;50.956;4.640;2022-11-20T07:24:38;37.10;;;13.68;;
20697;SDS011;10508;50.956;4.640;2022-11-20T07:27:04;41.63;;;14.10;;
20697;SDS011;10508;50.956;4.640;2022-11-20T07:29:29;33.30;;;13.25;;
20697;SDS011;10508;50.956;4.640;2022-11-20T07:31:55;43.25;;;13.30;;
20697;SDS011;10508;50.956;4.640;2022-11-20T07:34:21;48.10;;;14.40;;
20697;SDS011;10508;50.956;4.640;2022-11-20T07:36:47;43.10;;;14.07;;
20697;SDS011;10508;50.956;4.640;2022-11-20T07:39:13;48.90;;;14.60;;
20697;SDS011;10508;50.956;4.640;2022-11-20T07:41:38;43.97;;;14.70;;
20697;SDS011;10508;50.956;4.640;2022-11-20T07:44:04;33.90;;;14.32;;
20697;SDS011;10508;50.956;4.640;2022-11-20T07:46:30;42.05;;;12.70;;
20697;SDS011;10508;50.956;4.640;2022-11-20T07:48:56;40.55;;;13.93;;
20697;SDS011;10508;50.956;4.640;2022-11-20T07:51:21;38.03;;;13.25;;
20697;SDS011;10508;50.956;4.640;2022-11-20T07:53:47;49.90;;;13.88;;
20697;SDS011;10508;50.956;4.640;2022-11-20T07:56:15;50.00;;;14.27;;
20697;SDS011;10508;50.956;4.640;2022-11-20T07:58:40;44.95;;;13.88;;
20697;SDS011;10508;50.956;4.640;2022-11-20T08:01:06;44.28;;;12.95;;
20697;SDS011;10508;50.956;4.640;2022-11-20T08:03:35;49.15;;;13.63;;
20697;SDS011;10508;50.956;4.640;2022-11-20T08:06:04;45.58;;;14.13;;
20697;SDS011;10508;50.956;4.640;2022-11-20T08:08:30;48.60;;;13.65;;
20697;SDS011;10508;50.956;4.640;2022-11-20T08:10:59;49.10;;;13.90;;
20697;SDS011;10508;50.956;4.640;2022-11-20T08:13:43;44.72;;;14.48;;
20697;SDS011;10508;50.956;4.640;2022-11-20T08:16:27;45.80;;;14.13;;
20697;SDS011;10508;50.956;4.640;2022-11-20T08:18:53;54.28;;;14.95;;
20697;SDS011;10508;50.956;4.640;2022-11-20T08:21:19;56.72;;;13.50;;
20697;SDS011;10508;50.956;4.640;2022-11-20T08:23:45;41.92;;;14.25;;
20697;SDS011;10508;50.956;4.640;2022-11-20T08:26:10;57.53;;;15.77;;
20697;SDS011;10508;50.956;4.640;2022-11-20T08:28:36;49.95;;;14.15;;
20697;SDS011;10508;50.956;4.640;2022-11-20T08:31:02;53.33;;;15.80;;
20697;SDS011;10508;50.956;4.640;2022-11-20T08:33:28;44.58;;;15.50;;
20697;SDS011;10508;50.956;4.640;2022-11-20T08:35:58;66.88;;;16.42;;
20697;SDS011;10508;50.956;4.640;2022-11-20T08:38:27;52.03;;;15.60;;
20697;SDS011;10508;50.956;4.640;2022-11-20T08:40:55;50.92;;;16.60;;
20697;SDS011;10508;50.956;4.640;2022-11-20T08:43:40;45.70;;;14.95;;
20697;SDS011;10508;50.956;4.640;2022-11-20T08:46:06;53.33;;;16.23;;
20697;SDS011;10508;50.956;4.640;2022-11-20T08:48:32;55.53;;;14.95;;
20697;SDS011;10508;50.956;4.640;2022-11-20T08:50:58;51.63;;;15.15;;
20697;SDS011;10508;50.956;4.640;2022-11-20T08:53:24;51.03;;;14.43;;
20697;SDS011;10508;50.956;4.640;2022-11-20T08:55:51;43.58;;;13.63;;
20697;SDS011;10508;50.956;4.640;2022-11-20T08:58:17;51.03;;;13.93;;
20697;SDS011;10508;50.956;4.640;2022-11-20T09:00:42;43.15;;;14.23;;
20697;SDS011;10508;50.956;4.640;2022-11-20T09:03:08;47.95;;;13.50;;
20697;SDS011;10508;50.956;4.640;2022-11-20T09:05:34;47.42;;;14.98;;
20697;SDS011;10508;50.956;4.640;2022-11-20T09:07:59;56.55;;;14.93;;
20697;SDS011;10508;50.956;4.640;2022-11-20T09:10:28;54.78;;;14.13;;
20697;SDS011;10508;50.956;4.640;2022-11-20T09:12:54;50.80;;;15.13;;
20697;SDS011;10508;50.956;4.640;2022-11-20T09:15:20;53.97;;;15.15;;
20697;SDS011;10508;50.956;4.640;2022-11-20T09:17:52;48.83;;;14.50;;
20697;SDS011;10508;50.956;4.640;2022-11-20T09:20:25;60.05;;;15.32;;
20697;SDS011;10508;50.956;4.640;2022-11-20T09:22:52;45.60;;;13.55;;
20697;SDS011;10508;50.956;4.640;2022-11-20T09:25:18;57.35;;;14.40;;
20697;SDS011;10508;50.956;4.640;2022-11-20T09:27:43;52.55;;;14.25;;
20697;SDS011;10508;50.956;4.640;2022-11-20T09:30:11;44.78;;;14.38;;
20697;SDS011;10508;50.956;4.640;2022-11-20T09:32:41;58.50;;;14.35;;
20697;SDS011;10508;50.956;4.640;2022-11-20T09:35:07;63.50;;;14.63;;
20697;SDS011;10508;50.956;4.640;2022-11-20T09:37:34;47.83;;;13.77;;
20697;SDS011;10508;50.956;4.640;2022-11-20T09:39:59;62.92;;;15.18;;
20697;SDS011;10508;50.956;4.640;2022-11-20T09:42:27;46.95;;;14.27;;
20697;SDS011;10508;50.956;4.640;2022-11-20T09:45:23;51.63;;;15.80;;
20697;SDS011;10508;50.956;4.640;2022-11-20T09:54:15;57.60;;;15.43;;
20697;SDS011;10508;50.956;4.640;2022-11-20T09:56:56;53.28;;;14.40;;
20697;SDS011;10508;50.956;4.640;2022-11-20T09:59:35;43.35;;;13.18;;
20697;SDS011;10508;50.956;4.640;2022-11-20T10:02:25;49.25;;;13.30;;
20697;SDS011;10508;50.956;4.640;2022-11-20T10:04:55;47.45;;;13.15;;
20697;SDS011;10508;50.956;4.640;2022-11-20T10:07:32;40.03;;;13.90;;
20697;SDS011;10508;50.956;4.640;2022-11-20T10:10:13;42.38;;;12.82;;
20697;SDS011;10508;50.956;4.640;2022-11-20T10:15:28;45.83;;;13.65;;
20697;SDS011;10508;50.956;4.640;2022-11-20T10:28:48;38.80;;;12.75;;
20697;SDS011;10508;50.956;4.640;2022-11-20T10:31:33;38.25;;;13.15;;
20697;SDS011;10508;50.956;4.640;2022-11-20T10:36:56;37.13;;;11.38;;
20697;SDS011;10508;50.956;4.640;2022-11-20T10:42:37;37.40;;;10.48;;
20697;SDS011;10508;50.956;4.640;2022-11-20T10:45:27;39.85;;;12.15;;
20697;SDS011;10508;50.956;4.640;2022-11-20T10:50:52;34.25;;;11.15;;
20697;SDS011;10508;50.956;4.640;2022-11-20T10:56:17;39.22;;;12.25;;
20697;SDS011;10508;50.956;4.640;2022-11-20T11:01:42;30.40;;;10.90;;
20697;SDS011;10508;50.956;4.640;2022-11-20T11:04:15;34.15;;;11.75;;
20697;SDS011;10508;50.956;4.640;2022-11-20T11:06:54;39.60;;;11.73;;
20697;SDS011;10508;50.956;4.640;2022-11-20T11:09:37;34.38;;;11.35;;
20697;SDS011;10508;50.956;4.640;2022-11-20T11:12:08;31.33;;;10.45;;
20697;SDS011;10508;50.956;4.640;2022-11-20T11:14:44;29.50;;;10.48;;
20697;SDS011;10508;50.956;4.640;2022-11-20T11:17:33;25.45;;;9.50;;
20697;SDS011;10508;50.956;4.640;2022-11-20T11:19:59;23.67;;;9.07;;
20697;SDS011;10508;50.956;4.640;2022-11-20T11:22:33;29.05;;;9.32;;
20697;SDS011;10508;50.956;4.640;2022-11-20T11:25:07;23.90;;;8.93;;
20697;SDS011;10508;50.956;4.640;2022-11-20T11:27:47;23.33;;;9.18;;
20697;SDS011;10508;50.956;4.640;2022-11-20T11:30:14;34.20;;;9.07;;
20697;SDS011;10508;50.956;4.640;2022-11-20T11:32:42;20.65;;;7.65;;
20697;SDS011;10508;50.956;4.640;2022-11-20T11:35:27;23.27;;;7.82;;
20697;SDS011;10508;50.956;4.640;2022-11-20T11:38:06;18.58;;;7.50;;
20697;SDS011;10508;50.956;4.640;2022-11-20T11:40:37;19.60;;;6.63;;
20697;SDS011;10508;50.956;4.640;2022-11-20T11:43:05;14.60;;;5.57;;
20697;SDS011;10508;50.956;4.640;2022-11-20T11:46:01;12.75;;;6.40;;
20697;SDS011;10508;50.956;4.640;2022-11-20T11:48:27;11.70;;;6.00;;
20697;SDS011;10508;50.956;4.640;2022-11-20T11:50:52;15.27;;;4.53;;
20697;SDS011;10508;50.956;4.640;2022-11-20T11:53:21;6.90;;;3.28;;
20697;SDS011;10508;50.956;4.640;2022-11-20T11:55:56;11.02;;;3.45;;
20697;SDS011;10508;50.956;4.640;2022-11-20T11:58:34;5.18;;;2.80;;
20697;SDS011;10508;50.956;4.640;2022-11-20T12:01:17;6.95;;;2.65;;
20697;SDS011;10508;50.956;4.640;2022-11-20T12:07:00;9.43;;;3.03;;
20697;SDS011;10508;50.956;4.640;2022-11-20T12:09:34;5.95;;;2.38;;
20697;SDS011;10508;50.956;4.640;2022-11-20T12:12:10;13.77;;;2.50;;
20697;SDS011;10508;50.956;4.640;2022-11-20T12:14:43;4.80;;;1.90;;
20697;SDS011;10508;50.956;4.640;2022-11-20T12:17:12;13.15;;;3.70;;
20697;SDS011;10508;50.956;4.640;2022-11-20T12:19:39;6.47;;;1.95;;
20697;SDS011;10508;50.956;4.640;2022-11-20T12:24:57;3.60;;;1.63;;
20697;SDS011;10508;50.956;4.640;2022-11-20T12:30:11;6.30;;;1.50;;
20697;SDS011;10508;50.956;4.640;2022-11-20T12:38:31;3.65;;;1.67;;
20697;SDS011;10508;50.956;4.640;2022-11-20T12:41:11;3.85;;;1.65;;
20697;SDS011;10508;50.956;4.640;2022-11-20T12:44:33;3.38;;;1.60;;
20697;SDS011;10508;50.956;4.640;2022-11-20T12:50:01;5.45;;;1.70;;
20697;SDS011;10508;50.956;4.640;2022-11-20T12:57:58;4.88;;;1.90;;
20697;SDS011;10508;50.956;4.640;2022-11-20T13:00:30;3.10;;;1.67;;
20697;SDS011;10508;50.956;4.640;2022-11-20T13:08:34;5.22;;;1.80;;
20697;SDS011;10508;50.956;4.640;2022-11-20T13:19:23;3.28;;;1.83;;
20697;SDS011;10508;50.956;4.640;2022-11-20T13:21:49;6.35;;;1.80;;
20697;SDS011;10508;50.956;4.640;2022-11-20T13:29:41;5.75;;;1.70;;
20697;SDS011;10508;50.956;4.640;2022-11-20T13:35:03;7.53;;;1.85;;
20697;SDS011;10508;50.956;4.640;2022-11-20T13:37:34;8.43;;;2.65;;
20697;SDS011;10508;50.956;4.640;2022-11-20T13:42:33;4.43;;;1.92;;
20697;SDS011;10508;50.956;4.640;2022-11-20T13:45:25;8.52;;;2.30;;
20697;SDS011;10508;50.956;4.640;2022-11-20T13:47:53;9.32;;;2.28;;
20697;SDS011;10508;50.956;4.640;2022-11-20T13:50:21;6.22;;;2.55;;
20697;SDS011;10508;50.956;4.640;2022-11-20T13:55:57;4.47;;;2.10;;
20697;SDS011;10508;50.956;4.640;2022-11-20T13:58:40;5.75;;;2.28;;
20697;SDS011;10508;50.956;4.640;2022-11-20T14:01:25;3.13;;;2.15;;
20697;SDS011;10508;50.956;4.640;2022-11-20T14:03:56;4.47;;;1.80;;
20697;SDS011;10508;50.956;4.640;2022-11-20T14:06:26;5.07;;;2.45;;
20697;SDS011;10508;50.956;4.640;2022-11-20T14:08:56;5.65;;;2.33;;
20697;SDS011;10508;50.956;4.640;2022-11-20T14:14:10;5.07;;;2.80;;
20697;SDS011;10508;50.956;4.640;2022-11-20T14:16:40;5.05;;;2.35;;
20697;SDS011;10508;50.956;4.640;2022-11-20T14:21:51;3.67;;;2.13;;
20697;SDS011;10508;50.956;4.640;2022-11-20T14:24:42;4.82;;;1.95;;
20697;SDS011;10508;50.956;4.640;2022-11-20T14:27:14;2.03;;;1.50;;
20697;SDS011;10508;50.956;4.640;2022-11-20T14:29:48;2.42;;;1.65;;
20697;SDS011;10508;50.956;4.640;2022-11-20T14:32:16;3.92;;;1.70;;
20697;SDS011;10508;50.956;4.640;2022-11-20T14:34:44;4.88;;;1.85;;
20697;SDS011;10508;50.956;4.640;2022-11-20T14:37:12;5.97;;;2.25;;
20697;SDS011;10508;50.956;4.640;2022-11-20T14:39:54;3.22;;;1.88;;
20697;SDS011;10508;50.956;4.640;2022-11-20T14:42:27;6.70;;;1.80;;
20697;SDS011;10508;50.956;4.640;2022-11-20T14:44:56;5.53;;;1.65;;
20697;SDS011;10508;50.956;4.640;2022-11-20T14:47:28;2.30;;;1.40;;
20697;SDS011;10508;50.956;4.640;2022-11-20T14:49:55;4.80;;;1.60;;
20697;SDS011;10508;50.956;4.640;2022-11-20T14:52:24;3.38;;;1.10;;
20697;SDS011;10508;50.956;4.640;2022-11-20T14:54:52;2.00;;;1.45;;
20697;SDS011;10508;50.956;4.640;2022-11-20T14:59:50;2.88;;;1.40;;
20697;SDS011;10508;50.956;4.640;2022-11-20T15:02:16;1.73;;;1.27;;
20697;SDS011;10508;50.956;4.640;2022-11-20T15:07:11;3.38;;;1.48;;
20697;SDS011;10508;50.956;4.640;2022-11-20T15:12:33;2.35;;;1.20;;
20697;SDS011;10508;50.956;4.640;2022-11-20T15:15:02;1.77;;;1.35;;
20697;SDS011;10508;50.956;4.640;2022-11-20T15:17:30;2.60;;;1.30;;
20697;SDS011;10508;50.956;4.640;2022-11-20T15:19:57;3.30;;;1.40;;
20697;SDS011;10508;50.956;4.640;2022-11-20T15:22:24;2.97;;;1.42;;
20697;SDS011;10508;50.956;4.640;2022-11-20T15:24:50;2.45;;;1.40;;
20697;SDS011;10508;50.956;4.640;2022-11-20T15:27:16;7.75;;;2.40;;
20697;SDS011;10508;50.956;4.640;2022-11-20T15:29:41;4.55;;;2.13;;
20697;SDS011;10508;50.956;4.640;2022-11-20T15:32:08;4.22;;;1.90;;
20697;SDS011;10508;50.956;4.640;2022-11-20T15:34:34;2.65;;;1.63;;
20697;SDS011;10508;50.956;4.640;2022-11-20T15:36:59;4.07;;;1.95;;
20697;SDS011;10508;50.956;4.640;2022-11-20T15:39:25;4.78;;;2.00;;
20697;SDS011;10508;50.956;4.640;2022-11-20T15:41:50;3.80;;;2.20;;
20697;SDS011;10508;50.956;4.640;2022-11-20T15:44:16;4.50;;;2.55;;
20697;SDS011;10508;50.956;4.640;2022-11-20T15:46:41;3.30;;;2.42;;
20697;SDS011;10508;50.956;4.640;2022-11-20T15:49:14;9.20;;;2.67;;
20697;SDS011;10508;50.956;4.640;2022-11-20T15:51:43;6.40;;;2.63;;
20697;SDS011;10508;50.956;4.640;2022-11-20T15:54:15;6.55;;;2.78;;
20697;SDS011;10508;50.956;4.640;2022-11-20T15:56:46;4.32;;;2.33;;
20697;SDS011;10508;50.956;4.640;2022-11-20T15:59:13;5.90;;;2.55;;
20697;SDS011;10508;50.956;4.640;2022-11-20T16:01:42;7.10;;;3.05;;
20697;SDS011;10508;50.956;4.640;2022-11-20T16:04:11;10.43;;;3.17;;
20697;SDS011;10508;50.956;4.640;2022-11-20T16:06:37;3.55;;;2.33;;
20697;SDS011;10508;50.956;4.640;2022-11-20T16:09:03;8.98;;;2.95;;
20697;SDS011;10508;50.956;4.640;2022-11-20T16:11:29;5.78;;;2.50;;
20697;SDS011;10508;50.956;4.640;2022-11-20T16:13:54;7.65;;;2.85;;
20697;SDS011;10508;50.956;4.640;2022-11-20T16:16:38;5.22;;;2.50;;
20697;SDS011;10508;50.956;4.640;2022-11-20T16:19:08;5.97;;;2.45;;
20697;SDS011;10508;50.956;4.640;2022-11-20T16:21:35;7.43;;;2.67;;
20697;SDS011;10508;50.956;4.640;2022-11-20T16:24:05;5.57;;;2.85;;
20697;SDS011;10508;50.956;4.640;2022-11-20T16:26:32;4.53;;;2.38;;